sensor_id;sensor_type;location;lat;lon;timestamp;temperature;humidity
13470;DHT22;6807;48.682;9.032;2023-09-07T00:01:56;12.60;1.00
13470;DHT22;6807;48.682;9.032;2023-09-07T00:04:22;12.60;99.90
13470;DHT22;6807;48.682;9.032;2023-09-07T00:06:50;12.50;99.90
13470;DHT22;6807;48.682;9.032;2023-09-07T00:09:18;12.50;99.90
13470;DHT22;6807;48.682;9.032;2023-09-07T00:11:47;12.40;99.90
13470;DHT22;6807;48.682;9.032;2023-09-07T00:14:14;12.50;99.90
13470;DHT22;6807;48.682;9.032;2023-09-07T00:16:41;12.40;99.90
13470;DHT22;6807;48.682;9.032;2023-09-07T00:19:08;12.40;99.90
13470;DHT22;6807;48.682;9.032;2023-09-07T00:21:35;12.40;99.90
13470;DHT22;6807;48.682;9.032;2023-09-07T00:24:03;12.30;99.90
13470;DHT22;6807;48.682;9.032;2023-09-07T00:26:32;12.30;1.00
13470;DHT22;6807;48.682;9.032;2023-09-07T00:28:59;12.30;1.00
13470;DHT22;6807;48.682;9.032;2023-09-07T00:31:26;12.20;1.00
13470;DHT22;6807;48.682;9.032;2023-09-07T00:38:47;12.20;1.00
13470;DHT22;6807;48.682;9.032;2023-09-07T00:41:14;12.20;1.00
13470;DHT22;6807;48.682;9.032;2023-09-07T00:43:42;12.10;1.00
13470;DHT22;6807;48.682;9.032;2023-09-07T00:46:09;12.10;1.00
13470;DHT22;6807;48.682;9.032;2023-09-07T00:48:37;12.10;1.00
13470;DHT22;6807;48.682;9.032;2023-09-07T00:51:05;12.10;1.00
13470;DHT22;6807;48.682;9.032;2023-09-07T00:53:32;12.00;1.00
13470;DHT22;6807;48.682;9.032;2023-09-07T00:55:59;12.00;1.00
13470;DHT22;6807;48.682;9.032;2023-09-07T00:58:26;12.00;1.00
13470;DHT22;6807;48.682;9.032;2023-09-07T01:00:55;12.00;1.00
13470;DHT22;6807;48.682;9.032;2023-09-07T01:03:22;12.00;1.00
13470;DHT22;6807;48.682;9.032;2023-09-07T01:05:52;12.00;1.00
13470;DHT22;6807;48.682;9.032;2023-09-07T01:08:23;12.00;1.00
13470;DHT22;6807;48.682;9.032;2023-09-07T01:10:51;12.00;1.00
13470;DHT22;6807;48.682;9.032;2023-09-07T01:13:18;12.00;1.00
13470;DHT22;6807;48.682;9.032;2023-09-07T01:18:15;11.90;1.00
13470;DHT22;6807;48.682;9.032;2023-09-07T01:20:44;11.90;1.00
13470;DHT22;6807;48.682;9.032;2023-09-07T01:23:13;11.90;1.00
13470;DHT22;6807;48.682;9.032;2023-09-07T01:25:41;11.80;1.00
13470;DHT22;6807;48.682;9.032;2023-09-07T01:28:09;11.80;1.00
13470;DHT22;6807;48.682;9.032;2023-09-07T01:30:36;11.80;1.00
13470;DHT22;6807;48.682;9.032;2023-09-07T01:33:04;11.80;1.00
13470;DHT22;6807;48.682;9.032;2023-09-07T01:35:32;11.70;1.00
13470;DHT22;6807;48.682;9.032;2023-09-07T01:40:29;13.20;1.00
13470;DHT22;6807;48.682;9.032;2023-09-07T01:45:23;11.60;1.00
13470;DHT22;6807;48.682;9.032;2023-09-07T01:52:46;11.60;1.00
13470;DHT22;6807;48.682;9.032;2023-09-07T01:55:14;11.60;1.00
13470;DHT22;6807;48.682;9.032;2023-09-07T01:57:42;11.50;1.00
13470;DHT22;6807;48.682;9.032;2023-09-07T02:00:10;11.60;1.00
13470;DHT22;6807;48.682;9.032;2023-09-07T02:02:37;11.50;1.00
13470;DHT22;6807;48.682;9.032;2023-09-07T02:05:05;11.40;1.00
13470;DHT22;6807;48.682;9.032;2023-09-07T02:07:32;11.60;1.00
13470;DHT22;6807;48.682;9.032;2023-09-07T02:12:26;11.50;1.00
13470;DHT22;6807;48.682;9.032;2023-09-07T02:14:54;11.50;1.00
13470;DHT22;6807;48.682;9.032;2023-09-07T02:27:11;11.50;1.00
13470;DHT22;6807;48.682;9.032;2023-09-07T02:29:38;11.40;1.00
13470;DHT22;6807;48.682;9.032;2023-09-07T02:32:06;11.40;1.00
13470;DHT22;6807;48.682;9.032;2023-09-07T02:34:34;11.40;1.00
13470;DHT22;6807;48.682;9.032;2023-09-07T02:37:01;11.40;1.00
13470;DHT22;6807;48.682;9.032;2023-09-07T02:39:28;11.40;1.00
13470;DHT22;6807;48.682;9.032;2023-09-07T02:49:18;11.30;1.00
13470;DHT22;6807;48.682;9.032;2023-09-07T02:51:45;11.30;1.00
13470;DHT22;6807;48.682;9.032;2023-09-07T02:59:07;11.30;1.00
13470;DHT22;6807;48.682;9.032;2023-09-07T03:06:30;11.20;1.00
13470;DHT22;6807;48.682;9.032;2023-09-07T03:11:25;11.10;1.00
13470;DHT22;6807;48.682;9.032;2023-09-07T03:13:52;11.10;1.00
13470;DHT22;6807;48.682;9.032;2023-09-07T03:16:19;11.10;1.00
13470;DHT22;6807;48.682;9.032;2023-09-07T03:18:46;11.10;1.00
13470;DHT22;6807;48.682;9.032;2023-09-07T03:21:13;11.10;12.70
13470;DHT22;6807;48.682;9.032;2023-09-07T03:23:41;11.10;4.10
13470;DHT22;6807;48.682;9.032;2023-09-07T03:28:37;11.00;1.00
13470;DHT22;6807;48.682;9.032;2023-09-07T03:31:04;11.00;1.00
13470;DHT22;6807;48.682;9.032;2023-09-07T03:33:31;11.00;6.50
13470;DHT22;6807;48.682;9.032;2023-09-07T03:35:58;11.00;1.00
13470;DHT22;6807;48.682;9.032;2023-09-07T03:38:25;11.00;1.00
13470;DHT22;6807;48.682;9.032;2023-09-07T03:40:54;10.90;1.20
13470;DHT22;6807;48.682;9.032;2023-09-07T03:43:21;10.90;13.30
13470;DHT22;6807;48.682;9.032;2023-09-07T03:45:48;10.90;1.00
13470;DHT22;6807;48.682;9.032;2023-09-07T03:48:15;10.90;1.00
13470;DHT22;6807;48.682;9.032;2023-09-07T03:50:42;10.90;1.00
13470;DHT22;6807;48.682;9.032;2023-09-07T03:53:09;10.90;1.00
13470;DHT22;6807;48.682;9.032;2023-09-07T03:55:40;10.90;1.00
13470;DHT22;6807;48.682;9.032;2023-09-07T03:58:09;10.80;1.00
13470;DHT22;6807;48.682;9.032;2023-09-07T04:00:38;10.80;1.00
13470;DHT22;6807;48.682;9.032;2023-09-07T04:03:06;10.80;1.00
13470;DHT22;6807;48.682;9.032;2023-09-07T04:08:00;10.70;1.00
13470;DHT22;6807;48.682;9.032;2023-09-07T04:12:55;10.70;1.00
13470;DHT22;6807;48.682;9.032;2023-09-07T04:15:24;10.70;1.00
13470;DHT22;6807;48.682;9.032;2023-09-07T04:17:52;10.60;1.00
13470;DHT22;6807;48.682;9.032;2023-09-07T04:20:20;10.60;1.00
13470;DHT22;6807;48.682;9.032;2023-09-07T04:22:48;10.60;1.00
13470;DHT22;6807;48.682;9.032;2023-09-07T04:25:15;10.60;1.00
13470;DHT22;6807;48.682;9.032;2023-09-07T04:27:42;10.60;1.00
13470;DHT22;6807;48.682;9.032;2023-09-07T04:30:10;10.60;1.00
13470;DHT22;6807;48.682;9.032;2023-09-07T04:32:38;10.60;1.00
13470;DHT22;6807;48.682;9.032;2023-09-07T04:35:06;10.60;1.00
13470;DHT22;6807;48.682;9.032;2023-09-07T04:37:33;10.50;1.00
13470;DHT22;6807;48.682;9.032;2023-09-07T04:39:59;10.50;1.00
13470;DHT22;6807;48.682;9.032;2023-09-07T04:42:27;10.50;1.00
13470;DHT22;6807;48.682;9.032;2023-09-07T04:44:54;10.50;1.00
13470;DHT22;6807;48.682;9.032;2023-09-07T04:47:21;10.50;1.00
13470;DHT22;6807;48.682;9.032;2023-09-07T04:49:50;10.50;1.00
13470;DHT22;6807;48.682;9.032;2023-09-07T04:54:45;10.40;1.00
13470;DHT22;6807;48.682;9.032;2023-09-07T04:57:13;10.50;1.00
13470;DHT22;6807;48.682;9.032;2023-09-07T04:59:40;10.50;1.00
13470;DHT22;6807;48.682;9.032;2023-09-07T05:02:07;10.40;1.00
13470;DHT22;6807;48.682;9.032;2023-09-07T05:04:34;10.50;1.00
13470;DHT22;6807;48.682;9.032;2023-09-07T05:07:02;10.50;1.00
13470;DHT22;6807;48.682;9.032;2023-09-07T05:09:29;10.50;1.00
13470;DHT22;6807;48.682;9.032;2023-09-07T05:11:57;10.50;1.00
13470;DHT22;6807;48.682;9.032;2023-09-07T05:14:24;10.50;1.00
13470;DHT22;6807;48.682;9.032;2023-09-07T05:16:51;10.60;1.00
13470;DHT22;6807;48.682;9.032;2023-09-07T05:19:18;10.60;1.00
13470;DHT22;6807;48.682;9.032;2023-09-07T05:21:46;10.60;1.00
13470;DHT22;6807;48.682;9.032;2023-09-07T05:24:15;10.70;1.00
13470;DHT22;6807;48.682;9.032;2023-09-07T05:26:42;10.70;1.00
13470;DHT22;6807;48.682;9.032;2023-09-07T05:29:09;10.70;1.00
13470;DHT22;6807;48.682;9.032;2023-09-07T05:31:36;10.70;1.00
13470;DHT22;6807;48.682;9.032;2023-09-07T05:34:03;10.70;1.00
13470;DHT22;6807;48.682;9.032;2023-09-07T05:36:30;10.80;1.00
13470;DHT22;6807;48.682;9.032;2023-09-07T05:39:06;10.80;1.00
13470;DHT22;6807;48.682;9.032;2023-09-07T05:41:36;10.90;1.00
13470;DHT22;6807;48.682;9.032;2023-09-07T05:44:04;11.00;1.00
13470;DHT22;6807;48.682;9.032;2023-09-07T05:46:33;11.20;1.00
13470;DHT22;6807;48.682;9.032;2023-09-07T05:49:00;11.50;1.00
13470;DHT22;6807;48.682;9.032;2023-09-07T05:51:27;12.00;1.00
13470;DHT22;6807;48.682;9.032;2023-09-07T05:53:54;12.40;7.90
13470;DHT22;6807;48.682;9.032;2023-09-07T05:56:21;12.70;34.20
13470;DHT22;6807;48.682;9.032;2023-09-07T05:58:50;13.10;72.10
13470;DHT22;6807;48.682;9.032;2023-09-07T06:01:17;13.40;99.90
13470;DHT22;6807;48.682;9.032;2023-09-07T06:03:44;13.80;99.90
13470;DHT22;6807;48.682;9.032;2023-09-07T06:06:12;14.10;99.90
13470;DHT22;6807;48.682;9.032;2023-09-07T06:08:39;14.60;99.90
13470;DHT22;6807;48.682;9.032;2023-09-07T06:11:05;15.20;1.00
13470;DHT22;6807;48.682;9.032;2023-09-07T06:13:32;15.40;99.90
13470;DHT22;6807;48.682;9.032;2023-09-07T06:16:01;16.10;1.00
13470;DHT22;6807;48.682;9.032;2023-09-07T06:18:28;16.50;99.90
13470;DHT22;6807;48.682;9.032;2023-09-07T06:20:55;16.90;1.00
13470;DHT22;6807;48.682;9.032;2023-09-07T06:23:22;17.50;1.00
13470;DHT22;6807;48.682;9.032;2023-09-07T06:25:49;18.00;99.90
13470;DHT22;6807;48.682;9.032;2023-09-07T06:28:16;18.30;1.00
13470;DHT22;6807;48.682;9.032;2023-09-07T06:30:43;18.70;1.00
13470;DHT22;6807;48.682;9.032;2023-09-07T06:33:11;19.00;1.00
13470;DHT22;6807;48.682;9.032;2023-09-07T06:35:39;19.30;1.00
13470;DHT22;6807;48.682;9.032;2023-09-07T06:38:06;19.70;99.90
13470;DHT22;6807;48.682;9.032;2023-09-07T06:40:33;20.10;99.90
13470;DHT22;6807;48.682;9.032;2023-09-07T06:42:59;20.50;99.90
13470;DHT22;6807;48.682;9.032;2023-09-07T06:45:34;21.10;99.90
13470;DHT22;6807;48.682;9.032;2023-09-07T06:48:01;21.50;99.90
13470;DHT22;6807;48.682;9.032;2023-09-07T06:50:29;22.10;99.90
13470;DHT22;6807;48.682;9.032;2023-09-07T06:52:56;22.50;99.20
13470;DHT22;6807;48.682;9.032;2023-09-07T06:55:23;22.80;43.40
13470;DHT22;6807;48.682;9.032;2023-09-07T06:57:50;23.20;40.00
13470;DHT22;6807;48.682;9.032;2023-09-07T07:00:17;23.40;1.00
13470;DHT22;6807;48.682;9.032;2023-09-07T07:02:44;23.70;1.00
13470;DHT22;6807;48.682;9.032;2023-09-07T07:05:11;24.00;1.00
13470;DHT22;6807;48.682;9.032;2023-09-07T07:07:39;24.10;1.00
13470;DHT22;6807;48.682;9.032;2023-09-07T07:10:07;24.30;1.00
13470;DHT22;6807;48.682;9.032;2023-09-07T07:12:35;25.80;1.00
13470;DHT22;6807;48.682;9.032;2023-09-07T07:15:04;24.60;1.00
13470;DHT22;6807;48.682;9.032;2023-09-07T07:17:32;25.00;1.00
13470;DHT22;6807;48.682;9.032;2023-09-07T07:19:59;25.20;1.00
13470;DHT22;6807;48.682;9.032;2023-09-07T07:22:26;25.50;1.00
13470;DHT22;6807;48.682;9.032;2023-09-07T07:24:55;25.10;1.00
13470;DHT22;6807;48.682;9.032;2023-09-07T07:27:21;24.70;1.00
13470;DHT22;6807;48.682;9.032;2023-09-07T07:29:50;25.00;1.00
13470;DHT22;6807;48.682;9.032;2023-09-07T07:32:17;25.00;1.00
13470;DHT22;6807;48.682;9.032;2023-09-07T07:34:44;23.50;1.00
13470;DHT22;6807;48.682;9.032;2023-09-07T07:37:11;25.40;1.00
13470;DHT22;6807;48.682;9.032;2023-09-07T07:39:38;25.90;1.00
13470;DHT22;6807;48.682;9.032;2023-09-07T07:42:07;26.40;1.00
13470;DHT22;6807;48.682;9.032;2023-09-07T07:44:34;26.70;1.00
13470;DHT22;6807;48.682;9.032;2023-09-07T07:47:01;26.90;1.00
13470;DHT22;6807;48.682;9.032;2023-09-07T07:49:28;27.00;1.00
13470;DHT22;6807;48.682;9.032;2023-09-07T07:51:54;27.30;1.00
13470;DHT22;6807;48.682;9.032;2023-09-07T07:54:23;27.40;1.00
13470;DHT22;6807;48.682;9.032;2023-09-07T07:56:50;27.80;1.00
13470;DHT22;6807;48.682;9.032;2023-09-07T07:59:18;28.10;1.00
13470;DHT22;6807;48.682;9.032;2023-09-07T08:01:45;28.20;95.40
13470;DHT22;6807;48.682;9.032;2023-09-07T08:04:12;28.40;99.90
13470;DHT22;6807;48.682;9.032;2023-09-07T08:06:39;28.50;99.90
13470;DHT22;6807;48.682;9.032;2023-09-07T08:09:06;28.40;99.90
13470;DHT22;6807;48.682;9.032;2023-09-07T08:11:34;28.80;1.00
13470;DHT22;6807;48.682;9.032;2023-09-07T08:14:01;28.60;1.00
13470;DHT22;6807;48.682;9.032;2023-09-07T08:16:29;29.30;1.00
13470;DHT22;6807;48.682;9.032;2023-09-07T08:18:56;28.80;1.00
13470;DHT22;6807;48.682;9.032;2023-09-07T08:21:23;28.60;1.00
13470;DHT22;6807;48.682;9.032;2023-09-07T08:23:50;28.70;12.30
13470;DHT22;6807;48.682;9.032;2023-09-07T08:26:19;28.40;21.80
13470;DHT22;6807;48.682;9.032;2023-09-07T08:28:46;28.50;1.00
13470;DHT22;6807;48.682;9.032;2023-09-07T08:31:13;28.70;99.90
13470;DHT22;6807;48.682;9.032;2023-09-07T08:33:48;29.00;99.90
13470;DHT22;6807;48.682;9.032;2023-09-07T08:36:16;29.10;1.00
13470;DHT22;6807;48.682;9.032;2023-09-07T08:38:43;29.70;1.00
13470;DHT22;6807;48.682;9.032;2023-09-07T08:41:10;29.70;95.40
13470;DHT22;6807;48.682;9.032;2023-09-07T08:43:45;30.30;99.90
13470;DHT22;6807;48.682;9.032;2023-09-07T08:46:15;30.80;99.90
13470;DHT22;6807;48.682;9.032;2023-09-07T08:48:43;31.40;99.90
13470;DHT22;6807;48.682;9.032;2023-09-07T08:51:15;31.30;99.90
13470;DHT22;6807;48.682;9.032;2023-09-07T08:53:42;31.10;99.90
13470;DHT22;6807;48.682;9.032;2023-09-07T08:56:12;31.30;99.90
13470;DHT22;6807;48.682;9.032;2023-09-07T08:58:39;31.50;99.90
13470;DHT22;6807;48.682;9.032;2023-09-07T09:01:07;31.60;99.90
13470;DHT22;6807;48.682;9.032;2023-09-07T09:03:35;32.00;99.90
13470;DHT22;6807;48.682;9.032;2023-09-07T09:06:03;32.20;99.90
13470;DHT22;6807;48.682;9.032;2023-09-07T09:08:42;32.70;99.90
13470;DHT22;6807;48.682;9.032;2023-09-07T09:11:10;32.60;99.90
13470;DHT22;6807;48.682;9.032;2023-09-07T09:13:37;32.30;1.00
13470;DHT22;6807;48.682;9.032;2023-09-07T09:16:06;33.10;1.00
13470;DHT22;6807;48.682;9.032;2023-09-07T09:18:33;33.20;1.00
13470;DHT22;6807;48.682;9.032;2023-09-07T09:21:00;33.00;1.00
13470;DHT22;6807;48.682;9.032;2023-09-07T09:23:30;33.60;1.00
13470;DHT22;6807;48.682;9.032;2023-09-07T09:25:59;33.80;1.00
13470;DHT22;6807;48.682;9.032;2023-09-07T09:28:27;33.40;1.00
13470;DHT22;6807;48.682;9.032;2023-09-07T09:30:55;33.70;1.00
13470;DHT22;6807;48.682;9.032;2023-09-07T09:33:23;33.90;1.00
13470;DHT22;6807;48.682;9.032;2023-09-07T09:35:50;33.20;1.00
13470;DHT22;6807;48.682;9.032;2023-09-07T09:38:17;33.00;1.00
13470;DHT22;6807;48.682;9.032;2023-09-07T09:40:44;33.80;1.00
13470;DHT22;6807;48.682;9.032;2023-09-07T09:43:13;33.60;1.00
13470;DHT22;6807;48.682;9.032;2023-09-07T09:45:40;34.00;1.00
13470;DHT22;6807;48.682;9.032;2023-09-07T09:48:07;34.40;1.00
13470;DHT22;6807;48.682;9.032;2023-09-07T09:50:35;34.20;1.00
13470;DHT22;6807;48.682;9.032;2023-09-07T09:53:05;34.10;1.00
13470;DHT22;6807;48.682;9.032;2023-09-07T09:55:34;34.50;1.00
13470;DHT22;6807;48.682;9.032;2023-09-07T09:58:01;34.40;1.00
13470;DHT22;6807;48.682;9.032;2023-09-07T10:00:29;34.40;1.00
13470;DHT22;6807;48.682;9.032;2023-09-07T10:03:04;34.20;1.00
13470;DHT22;6807;48.682;9.032;2023-09-07T10:05:32;34.10;1.00
13470;DHT22;6807;48.682;9.032;2023-09-07T10:08:02;33.50;1.00
13470;DHT22;6807;48.682;9.032;2023-09-07T10:10:33;33.80;1.00
13470;DHT22;6807;48.682;9.032;2023-09-07T10:13:01;34.30;1.00
13470;DHT22;6807;48.682;9.032;2023-09-07T10:15:30;34.80;1.00
13470;DHT22;6807;48.682;9.032;2023-09-07T10:18:06;35.20;1.00
13470;DHT22;6807;48.682;9.032;2023-09-07T10:20:50;35.20;1.00
13470;DHT22;6807;48.682;9.032;2023-09-07T10:23:17;35.30;1.00
13470;DHT22;6807;48.682;9.032;2023-09-07T10:25:47;34.70;1.00
13470;DHT22;6807;48.682;9.032;2023-09-07T10:28:19;35.20;1.00
13470;DHT22;6807;48.682;9.032;2023-09-07T10:30:57;35.70;1.00
13470;DHT22;6807;48.682;9.032;2023-09-07T10:33:24;35.20;1.00
13470;DHT22;6807;48.682;9.032;2023-09-07T10:35:51;35.30;1.00
13470;DHT22;6807;48.682;9.032;2023-09-07T10:38:18;35.70;1.00
13470;DHT22;6807;48.682;9.032;2023-09-07T10:40:46;34.90;1.00
13470;DHT22;6807;48.682;9.032;2023-09-07T10:43:13;35.00;1.00
13470;DHT22;6807;48.682;9.032;2023-09-07T10:45:44;35.30;1.00
13470;DHT22;6807;48.682;9.032;2023-09-07T10:48:13;35.60;1.00
13470;DHT22;6807;48.682;9.032;2023-09-07T10:50:43;36.20;1.00
13470;DHT22;6807;48.682;9.032;2023-09-07T10:53:12;36.50;1.00
13470;DHT22;6807;48.682;9.032;2023-09-07T10:55:40;37.00;3.30
13470;DHT22;6807;48.682;9.032;2023-09-07T10:58:09;36.20;1.00
13470;DHT22;6807;48.682;9.032;2023-09-07T11:00:36;36.70;1.00
13470;DHT22;6807;48.682;9.032;2023-09-07T11:03:09;36.50;1.00
13470;DHT22;6807;48.682;9.032;2023-09-07T11:05:39;36.30;1.00
13470;DHT22;6807;48.682;9.032;2023-09-07T11:08:06;36.20;1.00
13470;DHT22;6807;48.682;9.032;2023-09-07T11:10:34;35.70;1.00
13470;DHT22;6807;48.682;9.032;2023-09-07T11:13:03;36.20;1.00
13470;DHT22;6807;48.682;9.032;2023-09-07T11:15:31;36.10;1.00
13470;DHT22;6807;48.682;9.032;2023-09-07T11:18:03;36.10;34.60
13470;DHT22;6807;48.682;9.032;2023-09-07T11:20:31;35.90;99.90
13470;DHT22;6807;48.682;9.032;2023-09-07T11:23:00;36.20;99.90
13470;DHT22;6807;48.682;9.032;2023-09-07T11:25:27;35.60;99.90
13470;DHT22;6807;48.682;9.032;2023-09-07T11:28:01;35.30;99.90
13470;DHT22;6807;48.682;9.032;2023-09-07T11:30:34;36.00;99.90
13470;DHT22;6807;48.682;9.032;2023-09-07T11:33:02;36.20;99.90
13470;DHT22;6807;48.682;9.032;2023-09-07T11:35:30;36.40;99.90
13470;DHT22;6807;48.682;9.032;2023-09-07T11:38:01;36.40;99.90
13470;DHT22;6807;48.682;9.032;2023-09-07T11:40:29;37.40;99.90
13470;DHT22;6807;48.682;9.032;2023-09-07T11:42:56;38.20;99.90
13470;DHT22;6807;48.682;9.032;2023-09-07T11:45:24;38.50;99.90
13470;DHT22;6807;48.682;9.032;2023-09-07T11:47:54;38.90;99.90
13470;DHT22;6807;48.682;9.032;2023-09-07T11:50:35;37.80;99.90
13470;DHT22;6807;48.682;9.032;2023-09-07T11:53:04;37.40;99.90
13470;DHT22;6807;48.682;9.032;2023-09-07T11:55:31;37.80;99.90
13470;DHT22;6807;48.682;9.032;2023-09-07T11:57:58;37.80;99.90
13470;DHT22;6807;48.682;9.032;2023-09-07T12:00:25;37.60;99.90
13470;DHT22;6807;48.682;9.032;2023-09-07T12:02:52;38.50;99.90
13470;DHT22;6807;48.682;9.032;2023-09-07T12:05:19;38.50;99.90
13470;DHT22;6807;48.682;9.032;2023-09-07T12:07:46;38.80;99.90
13470;DHT22;6807;48.682;9.032;2023-09-07T12:10:14;38.80;99.90
13470;DHT22;6807;48.682;9.032;2023-09-07T12:12:42;37.80;99.90
13470;DHT22;6807;48.682;9.032;2023-09-07T12:15:10;37.10;99.90
13470;DHT22;6807;48.682;9.032;2023-09-07T12:17:38;36.80;99.90
13470;DHT22;6807;48.682;9.032;2023-09-07T12:20:05;37.20;99.90
13470;DHT22;6807;48.682;9.032;2023-09-07T12:22:36;37.40;99.90
13470;DHT22;6807;48.682;9.032;2023-09-07T12:25:04;37.20;99.90
13470;DHT22;6807;48.682;9.032;2023-09-07T12:27:33;36.60;99.90
13470;DHT22;6807;48.682;9.032;2023-09-07T12:30:01;36.10;99.90
13470;DHT22;6807;48.682;9.032;2023-09-07T12:32:31;36.00;99.90
13470;DHT22;6807;48.682;9.032;2023-09-07T12:34:59;36.50;99.90
13470;DHT22;6807;48.682;9.032;2023-09-07T12:37:26;36.60;99.90
13470;DHT22;6807;48.682;9.032;2023-09-07T12:39:53;35.90;99.90
13470;DHT22;6807;48.682;9.032;2023-09-07T12:42:19;35.80;99.90
13470;DHT22;6807;48.682;9.032;2023-09-07T12:44:48;36.70;99.90
13470;DHT22;6807;48.682;9.032;2023-09-07T12:47:15;37.10;99.90
13470;DHT22;6807;48.682;9.032;2023-09-07T12:49:42;37.60;99.90
13470;DHT22;6807;48.682;9.032;2023-09-07T12:52:09;36.60;99.90
13470;DHT22;6807;48.682;9.032;2023-09-07T12:54:36;36.60;99.90
13470;DHT22;6807;48.682;9.032;2023-09-07T12:57:04;36.80;99.90
13470;DHT22;6807;48.682;9.032;2023-09-07T12:59:31;36.70;99.90
13470;DHT22;6807;48.682;9.032;2023-09-07T13:01:59;37.30;99.90
13470;DHT22;6807;48.682;9.032;2023-09-07T13:04:26;37.90;99.90
13470;DHT22;6807;48.682;9.032;2023-09-07T13:06:53;38.00;99.90
13470;DHT22;6807;48.682;9.032;2023-09-07T13:09:20;37.90;99.90
13470;DHT22;6807;48.682;9.032;2023-09-07T13:11:47;38.20;99.90
13470;DHT22;6807;48.682;9.032;2023-09-07T13:14:14;37.90;99.90
13470;DHT22;6807;48.682;9.032;2023-09-07T13:16:40;37.30;99.90
13470;DHT22;6807;48.682;9.032;2023-09-07T13:19:09;36.10;99.90
13470;DHT22;6807;48.682;9.032;2023-09-07T13:21:36;37.20;99.90
13470;DHT22;6807;48.682;9.032;2023-09-07T13:24:04;36.80;99.90
13470;DHT22;6807;48.682;9.032;2023-09-07T13:26:31;36.50;99.90
13470;DHT22;6807;48.682;9.032;2023-09-07T13:28:58;36.90;99.90
13470;DHT22;6807;48.682;9.032;2023-09-07T13:31:25;36.80;99.90
13470;DHT22;6807;48.682;9.032;2023-09-07T13:33:52;36.70;99.90
13470;DHT22;6807;48.682;9.032;2023-09-07T13:36:20;37.00;99.90
13470;DHT22;6807;48.682;9.032;2023-09-07T13:38:47;36.90;99.90
13470;DHT22;6807;48.682;9.032;2023-09-07T13:41:14;36.70;99.90
13470;DHT22;6807;48.682;9.032;2023-09-07T13:43:41;35.70;99.90
13470;DHT22;6807;48.682;9.032;2023-09-07T13:46:07;36.30;99.90
13470;DHT22;6807;48.682;9.032;2023-09-07T13:48:34;36.70;99.90
13470;DHT22;6807;48.682;9.032;2023-09-07T13:51:01;37.10;99.90
13470;DHT22;6807;48.682;9.032;2023-09-07T13:53:30;37.30;99.90
13470;DHT22;6807;48.682;9.032;2023-09-07T13:55:57;37.30;99.90
13470;DHT22;6807;48.682;9.032;2023-09-07T13:58:24;36.40;99.90
13470;DHT22;6807;48.682;9.032;2023-09-07T14:00:51;35.50;99.90
13470;DHT22;6807;48.682;9.032;2023-09-07T14:03:18;36.20;99.90
13470;DHT22;6807;48.682;9.032;2023-09-07T14:05:45;36.70;99.90
13470;DHT22;6807;48.682;9.032;2023-09-07T14:08:12;36.80;99.90
13470;DHT22;6807;48.682;9.032;2023-09-07T14:10:40;36.00;99.90
13470;DHT22;6807;48.682;9.032;2023-09-07T14:13:07;35.70;99.90
13470;DHT22;6807;48.682;9.032;2023-09-07T14:15:35;35.60;99.90
13470;DHT22;6807;48.682;9.032;2023-09-07T14:18:02;35.50;99.90
13470;DHT22;6807;48.682;9.032;2023-09-07T14:20:29;35.60;99.90
13470;DHT22;6807;48.682;9.032;2023-09-07T14:22:56;36.00;99.90
13470;DHT22;6807;48.682;9.032;2023-09-07T14:25:24;35.50;99.90
13470;DHT22;6807;48.682;9.032;2023-09-07T14:27:52;35.80;99.90
13470;DHT22;6807;48.682;9.032;2023-09-07T14:30:19;35.90;99.90
13470;DHT22;6807;48.682;9.032;2023-09-07T14:32:53;35.80;99.90
13470;DHT22;6807;48.682;9.032;2023-09-07T14:35:20;36.30;99.90
13470;DHT22;6807;48.682;9.032;2023-09-07T14:37:47;36.20;99.90
13470;DHT22;6807;48.682;9.032;2023-09-07T14:40:14;36.10;99.90
13470;DHT22;6807;48.682;9.032;2023-09-07T14:42:41;36.30;99.90
13470;DHT22;6807;48.682;9.032;2023-09-07T14:45:10;35.60;99.90
13470;DHT22;6807;48.682;9.032;2023-09-07T14:47:37;35.70;99.90
13470;DHT22;6807;48.682;9.032;2023-09-07T14:50:04;36.10;99.90
13470;DHT22;6807;48.682;9.032;2023-09-07T14:52:31;36.50;99.90
13470;DHT22;6807;48.682;9.032;2023-09-07T14:55:03;35.60;99.90
13470;DHT22;6807;48.682;9.032;2023-09-07T14:57:30;35.40;99.90
13470;DHT22;6807;48.682;9.032;2023-09-07T14:59:57;35.60;99.90
13470;DHT22;6807;48.682;9.032;2023-09-07T15:02:25;35.30;99.90
13470;DHT22;6807;48.682;9.032;2023-09-07T15:04:52;35.30;99.90
13470;DHT22;6807;48.682;9.032;2023-09-07T15:07:19;35.60;99.90
13470;DHT22;6807;48.682;9.032;2023-09-07T15:09:48;35.60;99.90
13470;DHT22;6807;48.682;9.032;2023-09-07T15:12:15;35.30;99.90
13470;DHT22;6807;48.682;9.032;2023-09-07T15:14:42;34.70;99.90
13470;DHT22;6807;48.682;9.032;2023-09-07T15:17:09;34.20;99.90
13470;DHT22;6807;48.682;9.032;2023-09-07T15:19:39;34.30;99.90
13470;DHT22;6807;48.682;9.032;2023-09-07T15:22:06;34.30;99.90
13470;DHT22;6807;48.682;9.032;2023-09-07T15:24:33;34.40;99.90
13470;DHT22;6807;48.682;9.032;2023-09-07T15:27:07;33.80;99.90
13470;DHT22;6807;48.682;9.032;2023-09-07T15:29:34;33.10;99.90
13470;DHT22;6807;48.682;9.032;2023-09-07T15:32:01;32.80;99.90
13470;DHT22;6807;48.682;9.032;2023-09-07T15:34:28;32.50;99.90
13470;DHT22;6807;48.682;9.032;2023-09-07T15:36:56;32.30;99.90
13470;DHT22;6807;48.682;9.032;2023-09-07T15:39:23;32.90;99.90
13470;DHT22;6807;48.682;9.032;2023-09-07T15:41:50;33.00;99.90
13470;DHT22;6807;48.682;9.032;2023-09-07T15:44:18;32.80;99.90
13470;DHT22;6807;48.682;9.032;2023-09-07T15:46:45;32.50;99.90
13470;DHT22;6807;48.682;9.032;2023-09-07T15:49:12;32.50;99.90
13470;DHT22;6807;48.682;9.032;2023-09-07T15:51:42;32.50;99.90
13470;DHT22;6807;48.682;9.032;2023-09-07T15:54:10;32.40;99.90
13470;DHT22;6807;48.682;9.032;2023-09-07T15:56:37;32.30;99.90
13470;DHT22;6807;48.682;9.032;2023-09-07T16:01:31;32.20;99.90
13470;DHT22;6807;48.682;9.032;2023-09-07T16:04:06;31.90;99.90
13470;DHT22;6807;48.682;9.032;2023-09-07T16:06:33;31.40;99.90
13470;DHT22;6807;48.682;9.032;2023-09-07T16:09:00;31.30;99.90
13470;DHT22;6807;48.682;9.032;2023-09-07T16:11:28;31.10;99.90
13470;DHT22;6807;48.682;9.032;2023-09-07T16:13:55;30.70;99.90
13470;DHT22;6807;48.682;9.032;2023-09-07T16:16:22;30.20;99.90
13470;DHT22;6807;48.682;9.032;2023-09-07T16:18:50;30.00;99.90
13470;DHT22;6807;48.682;9.032;2023-09-07T16:21:18;29.80;99.90
13470;DHT22;6807;48.682;9.032;2023-09-07T16:23:45;29.50;99.90
13470;DHT22;6807;48.682;9.032;2023-09-07T16:26:12;29.30;99.90
13470;DHT22;6807;48.682;9.032;2023-09-07T16:28:41;29.10;99.90
13470;DHT22;6807;48.682;9.032;2023-09-07T16:31:08;28.90;99.90
13470;DHT22;6807;48.682;9.032;2023-09-07T16:33:35;28.60;99.90
13470;DHT22;6807;48.682;9.032;2023-09-07T16:36:02;28.20;99.90
13470;DHT22;6807;48.682;9.032;2023-09-07T16:38:29;27.80;99.90
13470;DHT22;6807;48.682;9.032;2023-09-07T16:40:56;27.60;99.90
13470;DHT22;6807;48.682;9.032;2023-09-07T16:43:23;27.50;99.90
13470;DHT22;6807;48.682;9.032;2023-09-07T16:45:57;27.40;99.90
13470;DHT22;6807;48.682;9.032;2023-09-07T16:48:26;27.30;99.90
13470;DHT22;6807;48.682;9.032;2023-09-07T16:50:54;27.20;99.90
13470;DHT22;6807;48.682;9.032;2023-09-07T16:53:21;27.10;99.90
13470;DHT22;6807;48.682;9.032;2023-09-07T16:55:48;27.00;99.90
13470;DHT22;6807;48.682;9.032;2023-09-07T16:58:15;26.80;99.90
13470;DHT22;6807;48.682;9.032;2023-09-07T17:00:42;26.70;99.90